Time;durP1;ratioP1;P1;durP2;ratioP2;P2;SDS_P1;SDS_P2;PMS_P1;PMS_P2;Temp;Humidity;BMP_temperature;BMP_pressure;BME280_temperature;BME280_humidity;BME280_pressure;Samples;Min_cycle;Max_cycle;Signal;HPM_P1;HPM_P2
2022/05/13 00:01:04;;;;;;;10.83;7.30;;;;;;;17.25;100.00;98966.00;5051024;28;20198;-51
2022/05/13 00:03:33;;;;;;;13.77;7.47;;;;;;;17.25;98.69;98959.94;5052784;28;20189;-52
2022/05/13 00:06:01;;;;;;;13.20;7.27;;;;;;;17.27;99.05;98955.28;5052008;28;20220;-52
2022/05/13 00:08:28;;;;;;;9.90;7.67;;;;;;;17.25;98.88;98950.19;5052624;28;20675;-51
2022/05/13 00:10:54;;;;;;;9.30;7.33;;;;;;;17.23;97.96;98948.75;5052205;28;20661;-51
2022/05/13 00:13:22;;;;;;;10.33;6.80;;;;;;;17.24;98.47;98953.03;5052805;28;20726;-53
2022/05/13 00:15:50;;;;;;;10.23;7.07;;;;;;;17.25;98.56;98959.94;5052378;28;20295;-51
2022/05/13 00:18:18;;;;;;;9.50;7.10;;;;;;;17.24;99.26;98960.94;5052204;28;20207;-51
2022/05/13 00:20:45;;;;;;;10.60;7.47;;;;;;;17.25;98.91;98958.09;5052003;28;20565;-52
2022/05/13 00:23:14;;;;;;;12.30;7.23;;;;;;;17.19;99.93;98961.47;5052310;28;20193;-54
2022/05/13 00:25:42;;;;;;;11.97;7.90;;;;;;;17.20;99.68;98967.59;5052107;28;20209;-53
2022/05/13 00:28:09;;;;;;;11.83;7.30;;;;;;;17.19;100.00;98972.03;5052714;28;20197;-51
2022/05/13 00:30:38;;;;;;;8.90;7.90;;;;;;;17.14;100.00;98958.56;5052498;28;20192;-52
2022/05/13 00:33:05;;;;;;;13.10;8.47;;;;;;;17.11;100.00;98945.75;5051964;28;20219;-51
2022/05/13 00:35:33;;;;;;;12.73;8.63;;;;;;;17.03;100.00;98951.97;5048495;28;20292;-52
2022/05/13 00:38:00;;;;;;;12.43;9.07;;;;;;;17.00;100.00;98965.53;5052217;28;20265;-53
2022/05/13 00:40:28;;;;;;;11.93;8.93;;;;;;;16.94;100.00;98964.44;5052250;28;20199;-52
2022/05/13 00:43:00;;;;;;;11.57;8.67;;;;;;;16.91;100.00;98963.97;5050596;28;20662;-51
2022/05/13 00:45:44;;;;;;;10.53;7.80;;;;;;;16.86;100.00;98961.06;5051561;28;20597;-53
2022/05/13 00:48:30;;;;;;;9.97;8.03;;;;;;;16.86;100.00;98958.41;5052708;28;20783;-54
2022/05/13 00:50:58;;;;;;;11.13;8.80;;;;;;;16.81;100.00;98964.25;5052068;28;20260;-51
2022/05/13 00:53:25;;;;;;;11.40;8.53;;;;;;;16.82;100.00;98969.31;5052080;28;20189;-52
2022/05/13 00:55:54;;;;;;;13.70;8.50;;;;;;;16.78;100.00;98957.50;5052408;28;20589;-53
2022/05/13 00:58:22;;;;;;;14.93;9.37;;;;;;;16.75;100.00;98959.72;5051581;28;20200;-53
2022/05/13 01:00:49;;;;;;;14.20;9.13;;;;;;;16.65;100.00;98986.31;5051956;28;20199;-51
2022/05/13 01:03:16;;;;;;;16.13;9.33;;;;;;;16.64;100.00;98990.78;5050754;28;20212;-54
2022/05/13 01:05:47;;;;;;;11.50;8.87;;;;;;;16.64;100.00;98990.78;5046997;28;20217;-54
2022/05/13 01:08:15;;;;;;;14.37;9.00;;;;;;;16.60;100.00;98994.78;5051411;28;20204;-52
2022/05/13 01:10:44;;;;;;;11.23;8.67;;;;;;;16.50;100.00;98981.06;5051118;28;20204;-51
2022/05/13 01:13:20;;;;;;;13.30;7.50;;;;;;;16.46;100.00;98995.59;5050781;28;20211;-52
2022/05/13 01:15:49;;;;;;;12.07;7.53;;;;;;;16.26;100.00;99001.38;5050725;28;20230;-53
2022/05/13 01:18:24;;;;;;;12.30;6.50;;;;;;;16.26;100.00;98993.47;5043923;28;20196;-52
2022/05/13 01:20:51;;;;;;;10.03;6.33;;;;;;;16.23;100.00;98981.47;5048643;28;20195;-52
2022/05/13 01:23:21;;;;;;;9.27;5.00;;;;;;;16.11;100.00;98979.44;5046183;28;20206;-52
2022/05/13 01:25:50;;;;;;;8.70;4.77;;;;;;;16.06;100.00;98988.69;5052345;28;20215;-52
2022/05/13 01:28:20;;;;;;;7.30;4.20;;;;;;;16.02;100.00;98986.59;5052538;28;20187;-52
2022/05/13 01:30:50;;;;;;;9.60;4.37;;;;;;;15.97;100.00;98973.94;5049248;28;20187;-50
2022/05/13 01:33:18;;;;;;;7.30;3.80;;;;;;;15.96;100.00;98979.41;5050318;28;20237;-50
2022/05/13 01:35:46;;;;;;;10.67;4.23;;;;;;;15.95;100.00;98981.22;5053799;28;20592;-50
2022/05/13 01:38:15;;;;;;;11.70;4.33;;;;;;;15.92;100.00;98976.28;5055788;28;20271;-50
2022/05/13 01:40:44;;;;;;;13.77;4.40;;;;;;;15.86;100.00;98971.75;5051076;28;20188;-51
2022/05/13 01:43:11;;;;;;;11.67;3.97;;;;;;;15.84;100.00;98977.16;5051031;28;20196;-51
2022/05/13 01:45:38;;;;;;;12.37;3.83;;;;;;;15.83;100.00;98972.09;5048029;28;20215;-51
2022/05/13 01:48:07;;;;;;;8.50;3.90;;;;;;;15.78;100.00;98969.97;5050983;28;20241;-51
2022/05/13 01:50:35;;;;;;;10.23;3.60;;;;;;;15.68;100.00;98986.00;5050574;28;20599;-50
2022/05/13 01:53:02;;;;;;;5.77;3.87;;;;;;;15.68;100.00;98974.66;5052290;28;20588;-51
2022/05/13 01:55:29;;;;;;;12.13;3.67;;;;;;;15.64;100.00;98979.47;5055166;28;20226;-50
2022/05/13 01:57:58;;;;;;;13.97;3.87;;;;;;;15.62;100.00;98976.97;5054207;28;20613;-50
2022/05/13 02:00:25;;;;;;;5.03;3.63;;;;;;;15.63;100.00;98969.91;5055937;28;20190;-51
2022/05/13 02:05:37;;;;;;;6.40;3.23;;;;;;;15.61;100.00;98972.72;5052084;28;20218;-50
2022/05/13 02:08:05;;;;;;;12.00;3.97;;;;;;;15.60;100.00;98967.63;5054820;28;20254;-51
2022/05/13 02:10:31;;;;;;;5.50;3.67;;;;;;;15.61;100.00;98974.53;5055077;28;20195;-51
2022/05/13 02:13:00;;;;;;;10.20;3.60;;;;;;;15.59;100.00;98974.69;5051746;28;20555;-51
2022/05/13 02:15:26;;;;;;;11.50;3.53;;;;;;;15.65;100.00;98983.72;5052444;28;20645;-51
2022/05/13 02:17:53;;;;;;;8.83;4.17;;;;;;;15.58;100.00;98974.88;5051333;28;20829;-52
2022/05/13 02:20:20;;;;;;;9.03;3.63;;;;;;;15.52;100.00;98986.09;5055923;28;20197;-52
2022/05/13 02:22:47;;;;;;;14.33;4.27;;;;;;;15.47;100.00;98971.66;5055351;28;20195;-51
2022/05/13 02:25:14;;;;;;;6.97;3.40;;;;;;;15.43;100.00;98972.16;5059294;28;20810;-51
2022/05/13 02:27:41;;;;;;;12.03;3.83;;;;;;;15.47;100.00;98966.41;5061222;28;20240;-51
2022/05/13 02:30:12;;;;;;;7.87;3.47;;;;;;;15.49;100.00;98971.47;5038236;28;20193;-51
2022/05/13 02:32:39;;;;;;;5.70;3.53;;;;;;;15.47;100.00;98969.03;5035732;28;20188;-51
2022/05/13 02:35:08;;;;;;;6.13;3.53;;;;;;;15.47;100.00;98965.56;5033635;28;20207;-51
2022/05/13 02:37:35;;;;;;;7.33;3.70;;;;;;;15.41;100.00;98969.72;5035039;28;20191;-51
2022/05/13 02:40:04;;;;;;;9.80;3.30;;;;;;;15.42;100.00;98960.00;5035386;28;20179;-51
2022/05/13 02:42:31;;;;;;;12.80;3.90;;;;;;;15.40;100.00;98954.94;5035361;28;20937;-51
2022/05/13 02:44:58;;;;;;;13.50;3.60;;;;;;;15.39;100.00;98955.09;5034893;28;20274;-49
2022/05/13 02:47:45;;;;;;;8.53;4.00;;;;;;;15.35;100.00;98957.28;5035317;28;20219;-48
2022/05/13 02:50:18;;;;;;;8.47;3.43;;;;;;;15.35;100.00;98947.59;5035365;28;20277;-49
2022/05/13 02:52:46;;;;;;;10.40;3.77;;;;;;;15.37;100.00;98946.59;5035148;28;20566;-49
2022/05/13 02:55:13;;;;;;;6.47;3.60;;;;;;;15.32;100.00;98952.34;5034750;28;20204;-49
2022/05/13 02:57:40;;;;;;;7.97;3.43;;;;;;;15.35;100.00;98958.09;5033849;28;20250;-49
2022/05/13 03:00:09;;;;;;;8.53;3.93;;;;;;;15.34;100.00;98963.53;5035179;28;20660;-49
2022/05/13 03:02:37;;;;;;;10.93;3.83;;;;;;;15.31;100.00;98964.69;5035097;28;20202;-50
2022/05/13 03:05:07;;;;;;;7.37;3.90;;;;;;;15.27;100.00;98965.19;5034532;28;20632;-49
2022/05/13 03:07:34;;;;;;;9.20;4.03;;;;;;;15.28;100.00;98966.84;5034806;28;20215;-50
2022/05/13 03:10:01;;;;;;;9.07;3.70;;;;;;;15.27;100.00;98962.56;5034934;28;20184;-49
2022/05/13 03:12:28;;;;;;;5.50;3.70;;;;;;;15.26;100.00;98959.13;5034811;28;20195;-49
2022/05/13 03:14:55;;;;;;;14.10;3.77;;;;;;;15.25;100.00;98951.41;5034335;28;20283;-49
2022/05/13 03:17:22;;;;;;;8.03;3.80;;;;;;;15.22;100.00;98946.50;5039780;28;20192;-49
2022/05/13 03:19:50;;;;;;;10.00;3.97;;;;;;;15.19;100.00;98945.84;5054535;28;20538;-50
2022/05/13 03:22:18;;;;;;;8.50;4.20;;;;;;;15.31;100.00;98954.19;5034417;28;20192;-49
2022/05/13 03:24:44;;;;;;;9.90;4.10;;;;;;;15.25;100.00;98948.78;5042751;28;20214;-49
2022/05/13 03:27:12;;;;;;;6.43;3.80;;;;;;;15.24;100.00;98947.13;5044643;28;20215;-49
2022/05/13 03:29:39;;;;;;;9.07;3.47;;;;;;;15.19;100.00;98943.22;5034675;28;20246;-49
2022/05/13 03:32:06;;;;;;;9.13;3.50;;;;;;;15.15;100.00;98939.28;5034583;28;20239;-49
2022/05/13 03:34:34;;;;;;;10.80;4.00;;;;;;;15.16;100.00;98940.94;5032685;28;20224;-49
2022/05/13 03:37:01;;;;;;;6.97;3.27;;;;;;;15.15;100.00;98944.56;5033106;28;20196;-49
2022/05/13 03:39:30;;;;;;;7.60;3.90;;;;;;;15.13;100.00;98941.28;5034317;28;20191;-49
2022/05/13 03:41:57;;;;;;;10.80;3.93;;;;;;;15.09;100.00;98952.31;5034438;28;20271;-49
2022/05/13 03:44:24;;;;;;;9.03;3.37;;;;;;;15.12;100.00;98957.25;5034001;28;20211;-50
2022/05/13 03:46:52;;;;;;;8.77;3.80;;;;;;;15.08;100.00;98953.31;5034164;28;20211;-49
2022/05/13 03:49:19;;;;;;;11.17;3.80;;;;;;;15.11;100.00;98956.41;5033012;28;20198;-49
2022/05/13 03:51:46;;;;;;;6.80;4.13;;;;;;;15.10;100.00;98951.34;5032761;28;20515;-49
2022/05/13 03:54:13;;;;;;;7.83;4.27;;;;;;;15.10;100.00;98948.69;5032414;28;20222;-49
2022/05/13 03:56:42;;;;;;;7.07;3.80;;;;;;;15.05;100.00;98949.19;5033949;28;20552;-49
2022/05/13 03:59:10;;;;;;;9.60;3.93;;;;;;;14.99;100.00;98952.50;5032581;28;20568;-49
2022/05/13 04:01:37;;;;;;;8.43;3.90;;;;;;;15.01;100.00;98954.00;5033872;28;20187;-49
2022/05/13 04:04:05;;;;;;;5.97;3.97;;;;;;;15.03;100.00;98951.19;5033508;28;20218;-50
2022/05/13 04:09:17;;;;;;;11.97;3.97;;;;;;;14.96;100.00;98951.06;5034102;28;20183;-49
2022/05/13 04:16:04;;;;;;;9.33;3.90;;;;;;;14.90;100.00;98960.44;5033992;28;20195;-50
2022/05/13 04:17:18;;;;;;;10.13;4.07;;;;;;;14.94;100.00;98967.97;5033514;28;20190;-49
2022/05/13 04:19:45;;;;;;;6.80;4.13;;;;;;;14.87;100.00;98959.97;5032171;28;20203;-50
2022/05/13 04:22:13;;;;;;;8.73;4.30;;;;;;;14.90;100.00;98949.13;5032100;28;20704;-49
2022/05/13 04:24:40;;;;;;;8.93;4.20;;;;;;;14.93;100.00;98961.09;5031816;28;20220;-49
2022/05/13 04:27:09;;;;;;;11.43;4.47;;;;;;;14.98;100.00;98958.75;5033470;28;20706;-49
2022/05/13 04:29:37;;;;;;;8.17;3.80;;;;;;;15.01;100.00;98969.78;5033496;28;20192;-49
2022/05/13 04:32:05;;;;;;;11.43;4.30;;;;;;;15.03;100.00;98973.06;5033596;28;20188;-49
2022/05/13 04:34:32;;;;;;;10.20;3.90;;;;;;;14.98;100.00;98969.28;5033020;28;20211;-49
2022/05/13 04:36:59;;;;;;;10.03;3.97;;;;;;;15.00;100.00;98977.81;5033130;28;20593;-49
2022/05/13 04:39:26;;;;;;;8.93;3.60;;;;;;;15.01;100.00;98971.56;5031908;28;20295;-49
2022/05/13 04:44:47;;;;;;;8.23;4.03;;;;;;;15.01;100.00;98992.59;4985680;28;20311;-51
2022/05/13 04:49:55;;;;;;;11.67;3.73;;;;;;;14.87;100.00;98992.31;5032933;28;20198;-51
2022/05/13 04:52:22;;;;;;;7.43;3.47;;;;;;;14.89;100.00;98994.78;5031499;28;20200;-49
2022/05/13 04:54:49;;;;;;;8.83;3.23;;;;;;;14.89;100.00;99002.69;5032633;28;20204;-49
2022/05/13 04:57:15;;;;;;;11.80;3.70;;;;;;;14.91;100.00;99005.94;5032956;28;20176;-50
2022/05/13 04:59:42;;;;;;;7.83;3.23;;;;;;;14.86;100.00;99003.81;5032955;28;20187;-49
2022/05/13 05:02:10;;;;;;;12.33;3.47;;;;;;;14.88;100.00;99001.84;5032838;28;20185;-51
2022/05/13 05:04:38;;;;;;;5.77;2.97;;;;;;;14.87;100.00;99004.66;5031227;28;20226;-49
2022/05/13 05:07:05;;;;;;;9.40;3.50;;;;;;;14.82;100.00;99006.97;5033068;28;20581;-49
2022/05/13 05:09:35;;;;;;;8.40;3.40;;;;;;;14.81;100.00;99011.41;5031259;28;20201;-49
2022/05/13 05:12:01;;;;;;;8.73;3.53;;;;;;;14.78;100.00;99021.44;5032686;28;20817;-50
2022/05/13 05:14:28;;;;;;;9.17;3.13;;;;;;;14.77;100.00;99018.00;5032116;28;20683;-50
2022/05/13 05:16:55;;;;;;;10.13;3.27;;;;;;;14.74;100.00;99016.50;5037004;28;20186;-49
2022/05/13 05:19:24;;;;;;;13.60;3.07;;;;;;;14.71;100.00;99029.19;5046975;28;20659;-49
2022/05/13 05:21:51;;;;;;;7.13;3.37;;;;;;;14.67;100.00;99019.97;5052433;28;20198;-51
2022/05/13 05:24:19;;;;;;;11.43;3.67;;;;;;;14.68;100.00;99019.78;5041524;28;20219;-50
2022/05/13 05:26:46;;;;;;;6.90;3.20;;;;;;;14.68;100.00;99024.22;5032535;28;20207;-52
2022/05/13 05:29:13;;;;;;;12.37;3.10;;;;;;;14.65;100.00;99021.94;5032122;28;20184;-50
2022/05/13 05:31:40;;;;;;;10.60;3.20;;;;;;;14.65;100.00;99025.38;5032539;28;20213;-50
2022/05/13 05:34:07;;;;;;;10.77;3.47;;;;;;;14.66;100.00;99028.81;5030708;28;20218;-51
2022/05/13 05:36:36;;;;;;;11.33;3.53;;;;;;;14.66;100.00;99031.44;5032305;28;20192;-50
2022/05/13 05:39:04;;;;;;;7.27;3.30;;;;;;;14.69;100.00;99036.38;5030968;28;20193;-50
2022/05/13 05:41:31;;;;;;;5.63;3.17;;;;;;;14.68;100.00;99029.47;5032127;28;20187;-50
2022/05/13 05:43:58;;;;;;;12.53;3.53;;;;;;;14.65;100.00;99028.00;5031746;28;20247;-50
2022/05/13 05:46:25;;;;;;;9.63;3.17;;;;;;;14.65;100.00;99042.94;5032151;28;20194;-50
2022/05/13 05:48:53;;;;;;;12.97;3.30;;;;;;;14.67;100.00;99052.28;5032146;28;20301;-50
2022/05/13 05:51:20;;;;;;;5.77;3.27;;;;;;;14.63;100.00;99045.72;5032212;28;20266;-50
2022/05/13 05:59:18;;;;;;;7.43;3.87;;;;;;;14.55;100.00;99049.19;5035910;28;20201;-50
2022/05/13 06:01:46;;;;;;;7.95;3.75;;;;;;;14.55;100.00;99049.19;5034322;28;20437;-49
2022/05/13 06:04:13;;;;;;;10.47;3.73;;;;;;;14.56;100.00;99053.47;5035961;28;20214;-49
2022/05/13 06:06:40;;;;;;;6.47;3.10;;;;;;;14.63;100.00;99048.34;5035912;28;20269;-49
2022/05/13 06:09:08;;;;;;;5.10;3.50;;;;;;;14.66;100.00;99058.53;5036112;28;20189;-49
2022/05/13 06:11:36;;;;;;;9.27;3.27;;;;;;;14.66;100.00;99063.78;5036278;28;20273;-49
2022/05/13 06:14:04;;;;;;;11.33;3.30;;;;;;;14.70;100.00;99061.69;5035669;28;20306;-49
2022/05/13 06:16:31;;;;;;;5.60;3.00;;;;;;;14.74;100.00;99069.06;5042406;28;20199;-49
2022/05/13 06:19:00;;;;;;;9.73;3.30;;;;;;;14.78;100.00;99063.47;5053312;28;20198;-49
2022/05/13 06:21:28;;;;;;;7.37;2.80;;;;;;;14.82;100.00;99067.41;5055429;28;20611;-49
2022/05/13 06:23:55;;;;;;;11.77;3.47;;;;;;;14.85;100.00;99065.25;5047905;28;20738;-49
2022/05/13 06:26:42;;;;;;;11.00;3.30;;;;;;;14.93;100.00;99060.97;5035908;28;20202;-49
2022/05/13 06:29:09;;;;;;;5.57;2.93;;;;;;;15.07;100.00;99059.47;5035369;28;20182;-49
2022/05/13 06:31:36;;;;;;;13.47;3.90;;;;;;;15.19;100.00;99064.19;5033919;28;20207;-49
2022/05/13 06:34:04;;;;;;;7.70;3.47;;;;;;;15.30;100.00;99067.44;5034997;28;20679;-49
2022/05/13 06:36:31;;;;;;;9.67;3.50;;;;;;;15.42;100.00;99073.97;5035288;28;20209;-49
2022/05/13 06:38:59;;;;;;;6.77;3.13;;;;;;;15.46;100.00;99074.41;5035260;28;20176;-49
2022/05/13 06:41:27;;;;;;;7.47;3.20;;;;;;;15.54;100.00;99079.66;5034890;28;20192;-49
2022/05/13 06:43:55;;;;;;;18.00;3.50;;;;;;;15.50;100.00;99083.59;5034996;28;20600;-49
2022/05/13 06:46:23;;;;;;;9.47;3.17;;;;;;;15.62;100.00;99087.50;5034829;28;20720;-49
2022/05/13 06:48:50;;;;;;;9.90;3.07;;;;;;;15.55;100.00;99086.53;5035201;28;20302;-49
2022/05/13 06:51:18;;;;;;;9.63;3.27;;;;;;;15.52;100.00;99089.53;5035120;28;20183;-49
2022/05/13 06:53:45;;;;;;;6.20;3.30;;;;;;;15.59;100.00;99090.47;5034912;28;20184;-49
2022/05/13 06:56:12;;;;;;;8.53;3.30;;;;;;;15.61;100.00;99096.38;5034783;28;20183;-49
2022/05/13 06:58:39;;;;;;;6.53;2.93;;;;;;;15.71;100.00;99096.19;5034704;28;20183;-49
2022/05/13 07:01:07;;;;;;;7.67;3.17;;;;;;;15.75;100.00;99102.75;5034738;28;20184;-49
2022/05/13 07:03:35;;;;;;;6.63;3.60;;;;;;;15.86;100.00;99096.25;5034894;28;20726;-49
2022/05/13 07:06:02;;;;;;;9.67;3.13;;;;;;;15.82;100.00;99102.06;5033119;28;20587;-49
2022/05/13 07:08:30;;;;;;;9.33;3.07;;;;;;;15.89;100.00;99105.66;5034210;28;20211;-49
2022/05/13 07:10:58;;;;;;;5.77;2.87;;;;;;;15.68;100.00;99101.78;5034558;28;20671;-49
2022/05/13 07:13:25;;;;;;;9.93;3.30;;;;;;;15.61;100.00;99108.75;5033321;28;20227;-49
2022/05/13 07:15:52;;;;;;;5.07;3.33;;;;;;;15.74;100.00;99111.63;5034218;28;20267;-49
2022/05/13 07:18:21;;;;;;;9.70;3.63;;;;;;;15.81;100.00;99119.66;5056733;28;20234;-49
2022/05/13 07:20:49;;;;;;;6.90;3.00;;;;;;;15.85;100.00;99122.78;5059602;28;20191;-51
2022/05/13 07:23:16;;;;;;;11.93;2.87;;;;;;;15.92;100.00;99121.09;5049000;28;20724;-49
2022/05/13 07:25:43;;;;;;;6.93;2.80;;;;;;;16.05;100.00;99125.81;5038520;28;20556;-49
2022/05/13 07:28:10;;;;;;;9.47;3.27;;;;;;;16.20;100.00;99118.78;5034323;28;20208;-49
2022/05/13 07:30:38;;;;;;;13.43;2.83;;;;;;;16.38;100.00;99125.59;5034463;28;20185;-49
2022/05/13 07:33:05;;;;;;;7.40;3.33;;;;;;;16.54;100.00;99124.63;5033992;28;20618;-49
2022/05/13 07:35:34;;;;;;;7.43;3.47;;;;;;;16.59;99.73;99138.09;5033735;28;20205;-49
2022/05/13 07:38:01;;;;;;;8.33;3.90;;;;;;;16.57;97.93;99131.34;5044497;28;20284;-49
2022/05/13 07:43:14;;;;;;;8.80;3.00;;;;;;;16.48;97.18;99141.16;5052514;28;20657;-49
2022/05/13 07:45:40;;;;;;;9.43;2.83;;;;;;;16.20;93.63;99144.31;5050796;28;20782;-48
2022/05/13 07:48:08;;;;;;;10.93;3.53;;;;;;;16.28;96.25;99149.50;5055760;28;20229;-48
2022/05/13 07:50:37;;;;;;;13.57;3.23;;;;;;;16.32;97.35;99156.06;5034257;28;20181;-51
2022/05/13 07:53:05;;;;;;;9.30;3.03;;;;;;;16.41;97.13;99156.03;5034680;28;20192;-51
2022/05/13 07:55:32;;;;;;;7.53;3.30;;;;;;;16.55;96.63;99160.53;5033824;28;20213;-51
2022/05/13 07:58:00;;;;;;;6.00;3.30;;;;;;;16.62;97.36;99160.63;5033885;28;20220;-48
2022/05/13 08:00:29;;;;;;;5.90;2.67;;;;;;;16.84;96.97;99164.25;5034128;28;20247;-49
2022/05/13 08:02:59;;;;;;;6.63;3.03;;;;;;;17.11;95.40;99162.88;5034098;28;20239;-49
2022/05/13 08:05:28;;;;;;;9.10;3.33;;;;;;;17.38;92.68;99167.72;5033440;28;20224;-49
2022/05/13 08:08:02;;;;;;;10.37;3.10;;;;;;;17.69;90.06;99172.78;5033974;28;20679;-49
2022/05/13 08:10:29;;;;;;;5.37;2.83;;;;;;;17.88;86.77;99167.94;5033948;28;20193;-49
2022/05/13 08:12:57;;;;;;;11.03;3.03;;;;;;;18.03;84.72;99167.91;5033932;28;20535;-48
2022/05/13 08:15:24;;;;;;;5.70;2.93;;;;;;;18.28;84.41;99160.50;5033434;28;20605;-49
2022/05/13 08:17:51;;;;;;;13.33;2.97;;;;;;;18.44;85.55;99169.19;5033544;28;20215;-48
2022/05/13 08:20:19;;;;;;;10.90;3.27;;;;;;;18.61;83.12;99176.84;5032998;28;20200;-49
2022/05/13 08:22:46;;;;;;;7.23;2.60;;;;;;;18.70;77.40;99173.88;5033586;28;20205;-49
2022/05/13 08:25:15;;;;;;;8.00;3.03;;;;;;;18.85;78.45;99163.22;5033308;28;20327;-49
2022/05/13 08:27:42;;;;;;;9.87;2.90;;;;;;;19.11;74.63;99168.91;5033521;28;20225;-49
2022/05/13 08:30:11;;;;;;;5.33;2.70;;;;;;;19.21;72.97;99163.28;5033290;28;20193;-49
2022/05/13 08:32:39;;;;;;;10.30;2.93;;;;;;;19.55;73.60;99161.66;5033467;28;20724;-49
2022/05/13 08:35:07;;;;;;;12.30;3.00;;;;;;;19.91;70.88;99171.19;5033181;28;20224;-49
2022/05/13 08:37:40;;;;;;;10.20;2.80;;;;;;;20.12;71.04;99169.44;5033328;28;20185;-49
2022/05/13 08:40:13;;;;;;;6.47;2.83;;;;;;;20.41;72.22;99176.22;5031626;28;20202;-49
2022/05/13 08:42:47;;;;;;;6.47;2.70;;;;;;;20.46;71.14;99176.41;5033255;28;20611;-49
2022/05/13 08:45:17;;;;;;;6.20;2.60;;;;;;;20.37;68.42;99174.19;5040415;28;20228;-49
2022/05/13 08:48:06;;;;;;;10.67;2.90;;;;;;;20.37;67.80;99176.84;5053255;28;20215;-49
2022/05/13 08:50:39;;;;;;;7.73;3.00;;;;;;;20.27;66.91;99177.19;5053056;28;20537;-49
2022/05/13 08:53:20;;;;;;;5.83;3.00;;;;;;;20.24;67.84;99181.09;5049386;28;20205;-49
2022/05/13 08:55:52;;;;;;;11.67;3.43;;;;;;;20.11;66.25;99176.56;5056646;28;20222;-49
2022/05/13 08:58:24;;;;;;;9.17;3.73;;;;;;;19.99;67.35;99178.16;5056078;28;20312;-49
2022/05/13 09:00:54;;;;;;;15.30;3.70;;;;;;;19.77;67.81;99183.53;5057261;28;20196;-49
2022/05/13 09:03:31;;;;;;;10.17;3.67;;;;;;;19.76;64.12;99173.97;5070847;28;20201;-49
2022/05/13 09:06:04;;;;;;;7.37;3.30;;;;;;;20.00;63.54;99180.59;5071797;28;20593;-49
2022/05/13 09:08:33;;;;;;;11.37;3.10;;;;;;;20.06;67.71;99185.09;5068057;28;20239;-49
2022/05/13 09:11:21;;;;;;;13.57;3.70;;;;;;;19.71;65.60;99179.84;5044265;28;20273;-49
2022/05/13 09:14:02;;;;;;;7.87;3.37;;;;;;;19.80;67.17;99177.84;5032330;28;20195;-49
2022/05/13 09:16:49;;;;;;;4.80;2.60;;;;;;;19.88;66.79;99180.34;5032302;28;20199;-49
2022/05/13 09:19:24;;;;;;;9.20;3.10;;;;;;;19.82;69.20;99191.72;5050608;28;20197;-49
2022/05/13 09:21:55;;;;;;;11.80;3.67;;;;;;;19.85;67.49;99188.69;5050778;28;20212;-49
2022/05/13 09:24:22;;;;;;;9.03;3.47;;;;;;;19.84;66.22;99186.22;5039330;28;20721;-49
2022/05/13 09:26:50;;;;;;;6.80;4.00;;;;;;;19.65;65.40;99187.78;5051839;28;20279;-50
2022/05/13 09:29:19;;;;;;;9.40;3.83;;;;;;;19.68;65.39;99190.03;5060315;28;20571;-49
2022/05/13 09:31:48;;;;;;;7.93;3.17;;;;;;;20.11;64.18;99194.28;5050528;28;20193;-49
2022/05/13 09:34:32;;;;;;;9.90;3.50;;;;;;;20.33;63.05;99187.00;5041751;28;20204;-51
2022/05/13 09:37:10;;;;;;;8.13;2.80;;;;;;;20.35;59.68;99195.56;5031941;28;20194;-49
2022/05/13 09:39:39;;;;;;;8.30;3.07;;;;;;;20.45;61.53;99195.19;5032111;28;20188;-49
2022/05/13 09:42:34;;;;;;;9.00;3.23;;;;;;;21.22;62.88;99200.13;5031996;28;20186;-49
2022/05/13 09:45:21;;;;;;;7.43;3.20;;;;;;;20.96;60.34;99199.13;5027853;28;20237;-49
2022/05/13 09:48:02;;;;;;;7.87;3.30;;;;;;;21.13;57.01;99198.72;5031890;28;20192;-49
2022/05/13 09:50:32;;;;;;;9.20;3.23;;;;;;;21.02;56.03;99198.31;5030729;28;20207;-49
2022/05/13 09:53:04;;;;;;;8.97;3.20;;;;;;;21.03;54.87;99199.97;5030633;28;20201;-50
2022/05/13 09:55:36;;;;;;;7.40;2.93;;;;;;;21.12;57.46;99197.09;5031586;28;20291;-49
2022/05/13 09:58:09;;;;;;;11.17;2.77;;;;;;;20.82;56.88;99198.31;5031848;28;20192;-50
2022/05/13 10:00:41;;;;;;;7.23;2.77;;;;;;;20.12;55.90;99186.16;5031652;28;20196;-49
2022/05/13 10:03:19;;;;;;;8.10;2.63;;;;;;;20.46;54.19;99194.97;5031862;28;20185;-49
2022/05/13 10:05:53;;;;;;;9.53;2.97;;;;;;;20.40;53.76;99189.69;5031531;28;20568;-49
2022/05/13 10:08:26;;;;;;;7.03;2.90;;;;;;;19.65;56.10;99180.63;5031950;28;20253;-51
2022/05/13 10:14:01;;;;;;;5.90;2.87;;;;;;;19.68;56.96;99185.53;5031504;28;20651;-49
2022/05/13 10:16:35;;;;;;;8.03;2.40;;;;;;;19.81;54.29;99183.97;5031481;28;20635;-49
2022/05/13 10:19:28;;;;;;;5.87;2.13;;;;;;;19.71;55.45;99187.78;5032004;28;20275;-50
2022/05/13 10:22:02;;;;;;;3.50;1.93;;;;;;;20.12;53.23;99190.63;5032032;28;20194;-51
2022/05/13 10:24:34;;;;;;;7.37;2.00;;;;;;;20.14;52.32;99191.25;5031486;28;20765;-51
2022/05/13 10:27:04;;;;;;;8.10;1.90;;;;;;;20.19;52.30;99188.81;5030401;28;20206;-51
2022/05/13 10:29:37;;;;;;;4.53;2.00;;;;;;;20.47;51.94;99191.31;5031442;28;20289;-49
2022/05/13 10:32:17;;;;;;;6.13;2.30;;;;;;;20.62;50.33;99185.84;5031487;28;20187;-49
2022/05/13 10:34:48;;;;;;;8.40;2.17;;;;;;;21.13;50.04;99193.41;5031329;28;20578;-49
2022/05/13 10:37:20;;;;;;;5.53;1.90;;;;;;;21.46;50.29;99198.66;5031969;28;20516;-49
2022/05/13 10:39:51;;;;;;;4.33;1.70;;;;;;;21.68;46.27;99209.06;5031651;28;20189;-49
2022/05/13 10:42:21;;;;;;;6.33;1.97;;;;;;;21.94;46.32;99200.16;5030291;28;20204;-49
2022/05/13 10:45:07;;;;;;;9.10;1.70;;;;;;;21.49;47.16;99205.38;5033615;28;20300;-50
2022/05/13 10:47:41;;;;;;;5.90;2.53;;;;;;;21.47;48.33;99202.13;5033937;28;20196;-49
2022/05/13 10:50:15;;;;;;;9.17;1.87;;;;;;;21.22;46.91;99189.50;5035030;28;20223;-50
2022/05/13 10:52:52;;;;;;;9.20;1.90;;;;;;;21.51;47.14;99198.84;5035108;28;20191;-49
2022/05/13 10:55:24;;;;;;;4.77;1.60;;;;;;;21.92;43.26;99198.72;5034691;28;20213;-49
2022/05/13 10:58:02;;;;;;;6.00;1.57;;;;;;;21.32;45.02;99199.72;5035077;28;20191;-49
2022/05/13 11:00:41;;;;;;;4.90;1.60;;;;;;;21.81;43.89;99198.34;5034704;28;20190;-49
2022/05/13 11:03:38;;;;;;;6.87;1.80;;;;;;;21.78;45.55;99201.44;5034870;28;20189;-49
2022/05/13 11:06:19;;;;;;;7.87;1.73;;;;;;;21.55;47.03;99199.25;5034520;28;20533;-49
2022/05/13 11:08:52;;;;;;;10.07;2.20;;;;;;;21.28;46.72;99193.97;5034627;28;20205;-49
2022/05/13 11:11:39;;;;;;;4.40;1.80;;;;;;;21.28;48.26;99191.31;5034869;28;20207;-49
2022/05/13 11:14:23;;;;;;;5.73;1.83;;;;;;;21.08;47.28;99189.53;5034288;28;20787;-49
2022/05/13 11:16:57;;;;;;;8.83;1.93;;;;;;;20.85;47.82;99186.47;5040077;28;20215;-49
2022/05/13 11:19:31;;;;;;;14.43;2.63;;;;;;;21.13;48.86;99182.81;5055311;28;20659;-49
2022/05/13 11:22:03;;;;;;;4.80;1.80;;;;;;;21.48;48.19;99182.50;5054112;28;20230;-49
2022/05/13 11:27:45;;;;;;;7.87;2.10;;;;;;;21.06;46.56;99183.63;5069802;28;20229;-49
2022/05/13 11:30:15;;;;;;;7.17;1.90;;;;;;;20.73;48.20;99181.75;5071517;28;20209;-49
2022/05/13 11:32:48;;;;;;;9.23;1.93;;;;;;;20.86;47.28;99172.19;5060615;28;20233;-49
2022/05/13 11:35:38;;;;;;;7.00;1.90;;;;;;;20.50;48.87;99161.75;5072246;28;20248;-49
2022/05/13 11:38:11;;;;;;;10.80;2.13;;;;;;;20.74;48.79;99169.28;5073923;28;20255;-48
2022/05/13 11:40:47;;;;;;;7.97;1.60;;;;;;;20.55;48.54;99169.09;5073976;28;20185;-49
2022/05/13 11:43:39;;;;;;;7.93;1.97;;;;;;;20.80;48.55;99160.56;5072487;28;20211;-49
2022/05/13 11:46:25;;;;;;;7.60;1.80;;;;;;;21.10;51.78;99162.78;5073115;28;20201;-49
2022/05/13 11:48:56;;;;;;;4.40;1.70;;;;;;;21.18;48.11;99172.38;5073762;28;20689;-49
2022/05/13 11:51:29;;;;;;;7.70;1.93;;;;;;;21.18;50.43;99167.88;5073536;28;20657;-49
2022/05/13 11:54:17;;;;;;;12.17;2.07;;;;;;;20.90;47.63;99165.47;5065090;28;20286;-49
2022/05/13 11:56:46;;;;;;;9.93;2.00;;;;;;;20.89;48.87;99163.84;5047660;28;20278;-49
2022/05/13 11:59:46;;;;;;;8.70;1.63;;;;;;;20.59;50.52;99159.72;5053742;28;20606;-50
2022/05/13 12:02:28;;;;;;;6.00;1.70;;;;;;;20.56;51.66;99161.94;5053979;28;20187;-51
2022/05/13 12:05:11;;;;;;;5.10;2.03;;;;;;;20.43;50.38;99154.81;5053205;28;20554;-49
2022/05/13 12:07:50;;;;;;;7.33;1.90;;;;;;;20.39;49.86;99149.09;5053683;28;20190;-49
2022/05/13 12:10:19;;;;;;;7.23;2.17;;;;;;;20.30;48.46;99150.28;5053564;28;20219;-49